Surface observations / UK / EGMC

Quebec | Canada | USA | France | UK | Europe | Elsewhere

Display: Info & Location for EGMC | Help decoding METAR

EGMC SOUTHEND-ON-SEA -- UK
Raw surface observations for station EGMC
EGMC 170850Z 14003KT 8000 NSC M00/M01 Q1036=
EGMC 170820Z 13002KT 7000 NSC M00/M01 Q1035=
EGMC 170750Z 14003KT 7000 NSC M00/M01 Q1035=
EGMC 170720Z 11002KT 7000 NSC M00/M01 Q1035=
EGMC 170650Z 14003KT 6000 NSC M00/M01 Q1034=
EGMC 170620Z 14002KT 8000 NSC M00/M01 Q1035=
EGMC 170550Z 18001KT 8000 NSC M00/M01 Q1034=
EGMC 170520Z 12001KT 8000 NSC M00/M02 Q1034=
EGMC 170450Z 12002KT 8000 NSC M00/M02 Q1034=
EGMC 170420Z 14001KT 8000 FEW030 M00/M02 Q1034=
EGMC 170320Z 11003KT 8000 FEW030 SCT040 M01/M02 Q1033=
EGMC 170250Z 11003KT 8000 NSC M01/M02 Q1033=
EGMC 170150Z 01002KT 8000 NSC M01/M02 Q1033=
EGMC 170120Z 30002KT 8000 NSC 00/M01 Q1033=
EGMC 170020Z 28001KT CAVOK 02/00 Q1032=
EGMC 162350Z 28002KT 9999 FEW020 02/00 Q1032=
EGMC 162320Z 28002KT 9999 FEW020 SCT047 02/00 Q1032=
EGMC 162250Z 19002KT 9999 FEW020 BKN035 03/00 Q1032=
EGMC 162220Z 12002KT 9999 FEW020 BKN025 02/00 Q1032=
EGMC 162150Z 10002KT 9999 -RA BKN027 02/00 Q1032=
EGMC 162120Z 00000KT 9999 BKN030 01/00 Q1031=
EGMC 162050Z 00000KT CAVOK 01/M00 Q1031=
EGMC 162020Z 04003KT CAVOK 03/01 Q1031=
EGMC 161950Z 00000KT 9999 FEW040 03/01 Q1030=
EGMC 161920Z 05002KT 9999 FEW031 BKN038 04/02 Q1030=
EGMC 161850Z 04002KT 9999 BKN037 04/02 Q1030=
EGMC 161820Z 10003KT 9999 -RA FEW012 BKN034 05/03 Q1029=
EGMC 161750Z 12002KT 9999 -RA FEW012 BKN033 05/03 Q1029=
EGMC 161720Z 07003KT 9999 FEW012 BKN033 05/03 Q1029=
EGMC 161650Z VRB01KT 9999 FEW011 BKN030 05/02 Q1028=
EGMC 161620Z VRB02KT 9999 FEW011 SCT023 05/02 Q1028=
EGMC 161550Z 01003KT 9999 SCT013 BKN033 05/02 Q1028=
EGMC 161520Z VRB02KT 9999 FEW024 SCT032 05/02 Q1028=
EGMC 161450Z VRB03KT 9999 FEW013 BKN030 05/02 Q1028=
EGMC 161420Z VRB03KT 9999 FEW013 SCT028 06/02 Q1028=
EGMC 161350Z VRB03KT 9999 FEW012 SCT024 06/02 Q1027=
EGMC 161320Z VRB02KT 9999 FEW027 05/02 Q1027=
EGMC 161250Z VRB02KT 9999 FEW029 05/02 Q1028=
EGMC 161220Z 35002KT 9999 FEW018 05/02 Q1027=
EGMC 161150Z 00000KT 9999 FEW018 05/02 Q1028=
EGMC 161120Z VRB02KT CAVOK 04/01 Q1028=
EGMC 161050Z VRB02KT 9999 FEW015 06/03 Q1028=
EGMC 161020Z VRB02KT CAVOK 04/01 Q1027=
EGMC 160950Z 21003KT CAVOK 04/01 Q1027=
EGMC 160920Z 00000KT CAVOK 04/01 Q1027=
EGMC 160850Z 00000KT CAVOK 04/02 Q1027=
EGMC 160820Z 16002KT CAVOK 03/01 Q1027=